Slave Lake Airport
CYZH : now visible

Airfield :











YOU CAN JOIN US ON...

 
LOGIN :

Register | Disclaimer

   EN    FR    IT 

 









Legend :    VFR   Marginal VFR   IFR   Intensive IFR   Very Intensive IFR
Visi :
Ceiling :
>= 8 km
>= 3000ft
5 to 8 km
1000 to 3000 ft
1500m to 5 km
500 to 1000 ft
800 to 1500m
200 to 500 ft
< 800m
< 200 ft
Symbols :   Thunderstorms  Fog  Heavy snow  Heavy precipitations  Wind > 20 kt






- Airport Elevation : 1912 ft
- IATA code : YZH


CYZH - Slave Lake

CURRENT METAR :
  • 041900Z AUTO 27012KT 240V320 9SM CLR 22/08 A2995 RMK SLP145 DENSITY ALT 3000FT

EXPIRED METARs :
  • 041800Z AUTO 27018G23KT 9SM CLR 21/07 A2996 RMK SLP150 DENSITY ALT 2900FT
  • 041700Z AUTO 29019G27KT 9SM CLR 20/09 A2997 RMK SLP152 DENSITY ALT 2800FT

TAF TAF CYZH
Valid from the 04 at 19:00 until the 05 at 07:00 UTC


041838Z 0419/0507 28018G28KT P6SM SKC
FM050100 27008KT P6SM SKC RMK FCST BASED ON AUTO OBS. NXT FCST BY 050100Z
CZEG FIR / North America



MET'MAP, your aeronautical weather chart ! - Copyright ORBIFLY December 2007 - Disclaimer

ORBIFLY MET'MAP TEAM :

Programming & Development : Alexandra Zaïnal
Concept & original design : Baudouin d'Aumeries
Assistance for programming : Marc-Olivier Méhu
Technical & hardware support : Manuel Goepfert

Contact : metmap@orbifly.com




SOURCES & CREDITS :

   NOAA       Earth
Advisory